Time;durP1;ratioP1;P1;durP2;ratioP2;P2;SDS_P1;SDS_P2;PMS_P1;PMS_P2;Temp;Humidity;BMP_temperature;BMP_pressure;BME280_temperature;BME280_humidity;BME280_pressure;Samples;Min_cycle;Max_cycle;Signal;HPM_P1;HPM_P2
2022/08/28 00:01:49;;;;;;;7.80;3.38;;;;;;;;;;5038338;28;20037;-63
2022/08/28 00:04:15;;;;;;;8.95;3.95;;;;;;;;;;5035077;28;20049;-63
2022/08/28 00:06:41;;;;;;;10.65;3.45;;;;;;;;;;5053254;28;20045;-62
2022/08/28 00:09:07;;;;;;;7.63;3.00;;;;;;;;;;5053238;28;20048;-63
2022/08/28 00:11:36;;;;;;;8.38;3.38;;;;;;;;;;5052623;28;20041;-63
2022/08/28 00:14:05;;;;;;;9.48;3.63;;;;;;;;;;5053034;28;20040;-63
2022/08/28 00:16:32;;;;;;;9.80;3.60;;;;;;;;;;5053065;28;20120;-63
2022/08/28 00:18:58;;;;;;;11.85;3.85;;;;;;;;;;5052380;28;20045;-62
2022/08/28 00:21:24;;;;;;;11.43;3.88;;;;;;;;;;5053050;28;20634;-62
2022/08/28 00:23:52;;;;;;;10.77;3.92;;;;;;;;;;5052969;28;20502;-63
2022/08/28 00:29:04;;;;;;;10.90;3.58;;;;;;;;;;5032922;28;20042;-62
2022/08/28 00:31:31;;;;;;;8.52;3.72;;;;;;;;;;5032763;28;20064;-63
2022/08/28 00:33:57;;;;;;;13.38;3.95;;;;;;;;;;5032469;28;20033;-63
2022/08/28 00:36:23;;;;;;;7.75;3.83;;;;;;;;;;5032842;28;20455;-63
2022/08/28 00:38:49;;;;;;;10.70;3.40;;;;;;;;;;5032820;28;20042;-63
2022/08/28 00:41:16;;;;;;;12.10;3.63;;;;;;;;;;5032439;28;20369;-62
2022/08/28 00:43:43;;;;;;;11.30;3.53;;;;;;;;;;5032073;28;20033;-62
2022/08/28 00:46:15;;;;;;;7.78;3.20;;;;;;;;;;5032291;28;20041;-62
2022/08/28 00:48:41;;;;;;;7.85;3.55;;;;;;;;;;5031956;28;20072;-62
2022/08/28 00:53:54;;;;;;;9.95;3.72;;;;;;;;;;5032540;28;20443;-62
2022/08/28 00:56:20;;;;;;;13.40;3.65;;;;;;;;;;5032104;28;20037;-62
2022/08/28 00:58:47;;;;;;;7.03;3.45;;;;;;;;;;5032435;28;20056;-62
2022/08/28 01:01:13;;;;;;;13.55;4.07;;;;;;;;;;5032379;28;20048;-62
2022/08/28 01:03:40;;;;;;;10.68;3.83;;;;;;;;;;5051900;28;20044;-63
2022/08/28 01:06:07;;;;;;;11.80;3.85;;;;;;;;;;5052102;28;20090;-62
2022/08/28 01:08:34;;;;;;;17.92;3.60;;;;;;;;;;5051689;28;20064;-62
2022/08/28 01:11:02;;;;;;;9.95;3.90;;;;;;;;;;5051695;28;20753;-62
2022/08/28 01:13:29;;;;;;;11.05;4.05;;;;;;;;;;5052126;28;20037;-62
2022/08/28 01:15:56;;;;;;;12.73;4.18;;;;;;;;;;5052005;28;20045;-62
2022/08/28 01:18:24;;;;;;;11.45;4.30;;;;;;;;;;5051688;28;20097;-63
2022/08/28 01:21:13;;;;;;;9.50;3.50;;;;;;;;;;5051931;28;20040;-63
2022/08/28 01:23:57;;;;;;;11.50;3.60;;;;;;;;;;5038802;28;20080;-62
2022/08/28 01:26:24;;;;;;;14.40;4.18;;;;;;;;;;5021147;28;20045;-62
2022/08/28 01:28:51;;;;;;;9.13;3.92;;;;;;;;;;5031837;28;20049;-62
2022/08/28 01:31:18;;;;;;;11.23;4.57;;;;;;;;;;5014083;28;20069;-62
2022/08/28 01:33:45;;;;;;;12.88;4.07;;;;;;;;;;5031277;28;20167;-62
2022/08/28 01:36:12;;;;;;;11.23;3.92;;;;;;;;;;5031815;28;20052;-62
2022/08/28 01:38:39;;;;;;;7.82;3.53;;;;;;;;;;5031575;28;20042;-62
2022/08/28 01:41:05;;;;;;;10.02;3.92;;;;;;;;;;5031334;28;20041;-62
2022/08/28 01:43:31;;;;;;;13.25;4.10;;;;;;;;;;5031865;28;20046;-62
2022/08/28 01:46:00;;;;;;;11.23;4.18;;;;;;;;;;5031371;28;20099;-62
2022/08/28 01:48:27;;;;;;;8.57;3.55;;;;;;;;;;5031309;28;20053;-62
2022/08/28 01:50:54;;;;;;;14.35;3.95;;;;;;;;;;5031394;28;20041;-62
2022/08/28 01:53:24;;;;;;;7.65;3.97;;;;;;;;;;5031554;28;20488;-62
2022/08/28 01:55:51;;;;;;;9.55;3.63;;;;;;;;;;5030959;28;20044;-62
2022/08/28 01:58:17;;;;;;;10.60;3.72;;;;;;;;;;5031645;28;20041;-63
2022/08/28 02:00:43;;;;;;;6.53;3.35;;;;;;;;;;5031584;28;20073;-63
2022/08/28 02:03:11;;;;;;;6.82;3.08;;;;;;;;;;5046915;28;20077;-62
2022/08/28 02:05:37;;;;;;;13.07;3.65;;;;;;;;;;5051214;28;20080;-62
2022/08/28 02:08:04;;;;;;;9.45;3.60;;;;;;;;;;5050764;28;20557;-62
2022/08/28 02:10:31;;;;;;;11.43;4.10;;;;;;;;;;5050730;28;20563;-62
2022/08/28 02:12:58;;;;;;;8.57;3.53;;;;;;;;;;5033433;28;20124;-63
2022/08/28 02:15:24;;;;;;;13.27;4.30;;;;;;;;;;5051294;28;20040;-62
2022/08/28 02:17:51;;;;;;;9.48;3.72;;;;;;;;;;5050790;28;20047;-62
2022/08/28 02:20:17;;;;;;;16.25;4.00;;;;;;;;;;5051268;28;20051;-62
2022/08/28 02:22:44;;;;;;;12.45;4.20;;;;;;;;;;5051056;28;20076;-62
2022/08/28 02:25:11;;;;;;;8.23;3.35;;;;;;;;;;5048439;28;20037;-62
2022/08/28 02:27:37;;;;;;;9.35;3.38;;;;;;;;;;5031221;28;20045;-62
2022/08/28 02:30:05;;;;;;;7.90;3.90;;;;;;;;;;5031287;28;20041;-62
2022/08/28 02:32:31;;;;;;;7.75;2.97;;;;;;;;;;5030867;28;20511;-62
2022/08/28 02:34:57;;;;;;;7.57;4.13;;;;;;;;;;5031220;28;20114;-62
2022/08/28 02:37:23;;;;;;;8.23;3.47;;;;;;;;;;5031254;28;20087;-62
2022/08/28 02:39:51;;;;;;;9.68;3.47;;;;;;;;;;5030946;28;20041;-62
2022/08/28 02:42:17;;;;;;;10.13;4.32;;;;;;;;;;5031249;28;20041;-62
2022/08/28 02:44:44;;;;;;;6.57;2.85;;;;;;;;;;5030756;28;20126;-62
2022/08/28 02:47:10;;;;;;;7.32;3.35;;;;;;;;;;5030567;28;20048;-62
2022/08/28 02:49:36;;;;;;;11.80;4.20;;;;;;;;;;5031187;28;20034;-62
2022/08/28 02:52:02;;;;;;;11.73;3.80;;;;;;;;;;5031132;28;20033;-63
2022/08/28 02:54:28;;;;;;;7.13;3.60;;;;;;;;;;5030742;28;20704;-63
2022/08/28 02:56:54;;;;;;;9.77;3.85;;;;;;;;;;5031007;28;20125;-63
2022/08/28 02:59:21;;;;;;;8.13;4.10;;;;;;;;;;5031128;28;20038;-62
2022/08/28 03:01:47;;;;;;;7.88;3.58;;;;;;;;;;5035171;28;20040;-63
2022/08/28 03:04:13;;;;;;;13.48;4.13;;;;;;;;;;5051086;28;20033;-62
2022/08/28 03:06:39;;;;;;;9.68;3.65;;;;;;;;;;5050424;28;20469;-62
2022/08/28 03:09:05;;;;;;;9.45;3.80;;;;;;;;;;5053605;28;20041;-62
2022/08/28 03:11:31;;;;;;;8.70;3.88;;;;;;;;;;5054365;28;20077;-62
2022/08/28 03:13:57;;;;;;;11.18;3.42;;;;;;;;;;5054310;28;20045;-62
2022/08/28 03:16:24;;;;;;;10.15;3.20;;;;;;;;;;5053637;28;20046;-62
2022/08/28 03:18:50;;;;;;;11.35;3.80;;;;;;;;;;5053151;28;20045;-63
2022/08/28 03:21:16;;;;;;;8.80;3.70;;;;;;;;;;5053495;28;20102;-63
2022/08/28 03:23:42;;;;;;;8.25;3.28;;;;;;;;;;5052588;28;20045;-63
2022/08/28 03:26:10;;;;;;;6.82;3.22;;;;;;;;;;5042513;28;20103;-63
2022/08/28 03:28:38;;;;;;;9.05;3.40;;;;;;;;;;5033739;28;20765;-62
2022/08/28 03:31:05;;;;;;;7.57;3.10;;;;;;;;;;5033717;28;20038;-63
2022/08/28 03:33:32;;;;;;;6.28;3.38;;;;;;;;;;5034005;28;20420;-63
2022/08/28 03:35:58;;;;;;;7.80;3.40;;;;;;;;;;5033965;28;20041;-62
2022/08/28 03:38:25;;;;;;;8.95;3.70;;;;;;;;;;5033745;28;20530;-63
2022/08/28 03:40:51;;;;;;;12.70;3.40;;;;;;;;;;5033907;28;20049;-62
2022/08/28 03:43:18;;;;;;;7.68;3.20;;;;;;;;;;5034022;28;20139;-62
2022/08/28 03:45:57;;;;;;;8.52;3.33;;;;;;;;;;5033397;28;20060;-63
2022/08/28 03:48:24;;;;;;;11.23;3.15;;;;;;;;;;5033754;28;20037;-62
2022/08/28 03:50:52;;;;;;;6.78;3.00;;;;;;;;;;5033468;28;20041;-62
2022/08/28 03:53:19;;;;;;;10.00;3.20;;;;;;;;;;5033345;28;20137;-62
2022/08/28 03:55:45;;;;;;;8.57;3.28;;;;;;;;;;5033671;28;20092;-63
2022/08/28 03:58:11;;;;;;;11.00;3.40;;;;;;;;;;5033614;28;20072;-63
2022/08/28 04:00:39;;;;;;;7.15;3.20;;;;;;;;;;5033238;28;20052;-62
2022/08/28 04:03:05;;;;;;;13.52;3.72;;;;;;;;;;5048851;28;20052;-63
2022/08/28 04:05:33;;;;;;;14.32;3.97;;;;;;;;;;5035473;28;20124;-62
2022/08/28 04:07:59;;;;;;;8.07;3.42;;;;;;;;;;5052333;28;20057;-62
2022/08/28 04:10:26;;;;;;;6.60;3.20;;;;;;;;;;5053282;28;20399;-62
2022/08/28 04:12:52;;;;;;;10.57;3.97;;;;;;;;;;5053234;28;20581;-62
2022/08/28 04:15:19;;;;;;;7.30;3.13;;;;;;;;;;5052956;28;20549;-62
2022/08/28 04:17:45;;;;;;;9.00;3.47;;;;;;;;;;5052755;28;20073;-62
2022/08/28 04:20:11;;;;;;;8.77;3.83;;;;;;;;;;5053146;28;20048;-63
2022/08/28 04:22:37;;;;;;;8.80;3.20;;;;;;;;;;5052684;28;20041;-62
2022/08/28 04:25:03;;;;;;;13.52;4.00;;;;;;;;;;5051682;28;20561;-63
2022/08/28 04:27:29;;;;;;;8.70;3.58;;;;;;;;;;5032853;28;20100;-62
2022/08/28 04:29:55;;;;;;;9.73;3.95;;;;;;;;;;5032566;28;20476;-62
2022/08/28 04:32:22;;;;;;;6.30;3.30;;;;;;;;;;5032908;28;20053;-62
2022/08/28 04:34:48;;;;;;;12.70;3.97;;;;;;;;;;5033066;28;20189;-62
2022/08/28 04:37:15;;;;;;;13.40;4.22;;;;;;;;;;5032419;28;20341;-62
2022/08/28 04:39:41;;;;;;;6.78;3.17;;;;;;;;;;5032738;28;20060;-62
2022/08/28 04:42:07;;;;;;;7.35;3.63;;;;;;;;;;5015033;28;20461;-62
2022/08/28 04:44:33;;;;;;;8.52;3.28;;;;;;;;;;5032172;28;20073;-63
2022/08/28 04:47:00;;;;;;;7.97;3.00;;;;;;;;;;5032466;28;20030;-62
2022/08/28 04:49:27;;;;;;;8.10;3.25;;;;;;;;;;5032331;28;20042;-62
2022/08/28 04:51:53;;;;;;;7.80;3.35;;;;;;;;;;5032405;28;20033;-63
2022/08/28 04:54:19;;;;;;;6.75;3.08;;;;;;;;;;5032617;28;20057;-62
2022/08/28 04:56:46;;;;;;;10.98;3.72;;;;;;;;;;5032469;28;20601;-63
2022/08/28 04:59:12;;;;;;;8.20;3.75;;;;;;;;;;5032595;28;20050;-63
2022/08/28 05:01:39;;;;;;;9.43;3.25;;;;;;;;;;5035500;28;20040;-63
2022/08/28 05:04:05;;;;;;;5.45;3.08;;;;;;;;;;5052329;28;20044;-63
2022/08/28 05:06:32;;;;;;;8.20;3.33;;;;;;;;;;5051905;28;20556;-63
2022/08/28 05:09:00;;;;;;;7.07;3.20;;;;;;;;;;5051294;28;20045;-62
2022/08/28 05:11:26;;;;;;;9.52;3.50;;;;;;;;;;5051890;28;20041;-62
2022/08/28 05:13:53;;;;;;;10.15;3.08;;;;;;;;;;5051893;28;20068;-62
2022/08/28 05:16:20;;;;;;;9.15;3.22;;;;;;;;;;5051658;28;20391;-63
2022/08/28 05:18:46;;;;;;;7.35;3.45;;;;;;;;;;5051603;28;20094;-62
2022/08/28 05:21:20;;;;;;;6.05;3.35;;;;;;;;;;5052078;28;20041;-63
2022/08/28 05:23:48;;;;;;;9.73;3.28;;;;;;;;;;5051612;28;20154;-62
2022/08/28 05:26:15;;;;;;;5.80;2.95;;;;;;;;;;5040718;28;20099;-62
2022/08/28 05:28:41;;;;;;;7.70;3.30;;;;;;;;;;5031994;28;20041;-63
2022/08/28 05:31:10;;;;;;;9.18;2.95;;;;;;;;;;5031133;28;20048;-63
2022/08/28 05:33:37;;;;;;;7.78;3.05;;;;;;;;;;5031839;28;20372;-63
2022/08/28 05:36:06;;;;;;;10.23;3.17;;;;;;;;;;5031881;28;20515;-63
2022/08/28 05:38:33;;;;;;;9.15;3.30;;;;;;;;;;5031437;28;20116;-63
2022/08/28 05:40:59;;;;;;;10.70;3.42;;;;;;;;;;5014286;28;20041;-63
2022/08/28 05:43:26;;;;;;;4.78;2.95;;;;;;;;;;5031749;28;20041;-63
2022/08/28 05:45:57;;;;;;;12.13;3.20;;;;;;;;;;5031314;28;20080;-62
2022/08/28 05:48:23;;;;;;;5.78;2.70;;;;;;;;;;5031507;28;20049;-63
2022/08/28 05:50:49;;;;;;;12.85;3.58;;;;;;;;;;5031565;28;20423;-62
2022/08/28 05:53:16;;;;;;;9.85;3.67;;;;;;;;;;5031224;28;20047;-62
2022/08/28 05:55:42;;;;;;;9.18;2.92;;;;;;;;;;5031404;28;20033;-63
2022/08/28 06:00:53;;;;;;;7.20;2.80;;;;;;;;;;5031208;28;20538;-62
2022/08/28 06:03:19;;;;;;;10.80;3.30;;;;;;;;;;5048313;28;20120;-63
2022/08/28 06:05:45;;;;;;;8.68;3.10;;;;;;;;;;5051535;28;20044;-62
2022/08/28 06:08:11;;;;;;;10.27;3.53;;;;;;;;;;5050293;28;20083;-63
2022/08/28 06:10:44;;;;;;;8.63;3.13;;;;;;;;;;5051349;28;20094;-63
2022/08/28 06:13:10;;;;;;;7.88;3.15;;;;;;;;;;5051218;28;20437;-62
2022/08/28 06:15:45;;;;;;;9.88;2.60;;;;;;;;;;5050908;28;20049;-63
2022/08/28 06:18:12;;;;;;;9.52;3.55;;;;;;;;;;5051237;28;20061;-62
2022/08/28 06:20:40;;;;;;;10.68;3.10;;;;;;;;;;5051067;28;20496;-62
2022/08/28 06:23:07;;;;;;;8.98;3.17;;;;;;;;;;5051130;28;20049;-62
2022/08/28 06:25:47;;;;;;;9.07;2.40;;;;;;;;;;5045759;28;20041;-62
2022/08/28 06:28:18;;;;;;;7.07;2.40;;;;;;;;;;5030813;28;20045;-62
2022/08/28 06:30:44;;;;;;;7.65;2.50;;;;;;;;;;5031378;28;20086;-63
2022/08/28 06:33:11;;;;;;;9.60;3.08;;;;;;;;;;5031266;28;20132;-63
2022/08/28 06:35:40;;;;;;;9.93;3.10;;;;;;;;;;5031006;28;20041;-63
2022/08/28 06:38:07;;;;;;;10.23;3.10;;;;;;;;;;5031250;28;20377;-62
2022/08/28 06:40:43;;;;;;;9.55;2.95;;;;;;;;;;5031095;28;20049;-63
2022/08/28 06:43:10;;;;;;;7.85;2.55;;;;;;;;;;5032601;28;20045;-63
2022/08/28 06:45:55;;;;;;;9.40;3.05;;;;;;;;;;5034972;28;20068;-63
2022/08/28 06:48:23;;;;;;;12.32;2.80;;;;;;;;;;5034724;28;20041;-63
2022/08/28 06:50:49;;;;;;;9.60;2.70;;;;;;;;;;5034513;28;20048;-63
2022/08/28 06:53:17;;;;;;;10.80;2.30;;;;;;;;;;5034834;28;20052;-62
2022/08/28 06:55:43;;;;;;;8.65;2.20;;;;;;;;;;5035049;28;20073;-63
2022/08/28 06:58:11;;;;;;;8.18;2.17;;;;;;;;;;5034360;28;20056;-63
2022/08/28 07:00:37;;;;;;;8.20;1.95;;;;;;;;;;5034718;28;20042;-63
2022/08/28 07:03:04;;;;;;;5.45;2.10;;;;;;;;;;5049631;28;20098;-62
2022/08/28 07:05:31;;;;;;;6.97;1.95;;;;;;;;;;5054132;28;20053;-63
2022/08/28 07:07:57;;;;;;;8.57;2.50;;;;;;;;;;5053935;28;20093;-63
2022/08/28 07:10:23;;;;;;;9.10;2.08;;;;;;;;;;5054318;28;20507;-63
2022/08/28 07:12:50;;;;;;;8.30;2.38;;;;;;;;;;5053825;28;20041;-62
2022/08/28 07:15:16;;;;;;;6.90;1.90;;;;;;;;;;5054435;28;20081;-62
2022/08/28 07:17:42;;;;;;;10.52;2.25;;;;;;;;;;5054198;28;20160;-63
2022/08/28 07:20:10;;;;;;;12.70;2.22;;;;;;;;;;5053920;28;20039;-62
2022/08/28 07:22:36;;;;;;;10.45;1.95;;;;;;;;;;5054252;28;20112;-63
2022/08/28 07:25:03;;;;;;;7.53;2.00;;;;;;;;;;5052857;28;20051;-62
2022/08/28 07:27:30;;;;;;;7.22;1.75;;;;;;;;;;5033717;28;20494;-63
2022/08/28 07:29:57;;;;;;;7.85;2.35;;;;;;;;;;5034289;28;20065;-63
2022/08/28 07:32:23;;;;;;;9.75;1.95;;;;;;;;;;5015879;28;20052;-63
2022/08/28 07:34:50;;;;;;;7.82;1.60;;;;;;;;;;5033634;28;20408;-63
2022/08/28 07:37:16;;;;;;;6.78;1.65;;;;;;;;;;5034042;28;20041;-63
2022/08/28 07:39:43;;;;;;;4.63;1.90;;;;;;;;;;5033899;28;20644;-62
2022/08/28 07:42:09;;;;;;;7.32;1.13;;;;;;;;;;5033537;28;20128;-63
2022/08/28 07:44:50;;;;;;;10.95;2.08;;;;;;;;;;5016236;28;20442;-63
2022/08/28 07:47:17;;;;;;;7.28;1.70;;;;;;;;;;5033799;28;20160;-63
2022/08/28 07:49:43;;;;;;;8.18;1.55;;;;;;;;;;5033451;28;20098;-62
2022/08/28 07:52:10;;;;;;;5.28;1.70;;;;;;;;;;5033529;28;20084;-63
2022/08/28 07:54:36;;;;;;;7.68;1.52;;;;;;;;;;5033405;28;20045;-63
2022/08/28 07:57:07;;;;;;;7.78;1.90;;;;;;;;;;5033230;28;20048;-63
2022/08/28 07:59:33;;;;;;;6.18;1.40;;;;;;;;;;5033697;28;20121;-62
2022/08/28 08:01:59;;;;;;;10.75;1.60;;;;;;;;;;5039643;28;20044;-63
2022/08/28 08:04:25;;;;;;;6.85;1.85;;;;;;;;;;5053004;28;20040;-63
2022/08/28 08:06:52;;;;;;;7.85;1.42;;;;;;;;;;5034972;28;20049;-62
2022/08/28 08:09:19;;;;;;;6.97;1.63;;;;;;;;;;5053033;28;20048;-63
2022/08/28 08:11:46;;;;;;;5.72;1.60;;;;;;;;;;5052694;28;20045;-63
2022/08/28 08:14:12;;;;;;;9.02;2.05;;;;;;;;;;5053307;28;20047;-63
2022/08/28 08:16:39;;;;;;;4.78;1.27;;;;;;;;;;5053244;28;20044;-63
2022/08/28 08:19:08;;;;;;;4.38;1.40;;;;;;;;;;5052682;28;20430;-63
2022/08/28 08:21:34;;;;;;;6.57;1.50;;;;;;;;;;5053170;28;20040;-63
2022/08/28 08:24:00;;;;;;;5.43;1.15;;;;;;;;;;5052747;28;20044;-63
2022/08/28 08:26:27;;;;;;;6.25;1.95;;;;;;;;;;5039473;28;20045;-63
2022/08/28 08:28:53;;;;;;;3.33;1.20;;;;;;;;;;5032895;28;20045;-63
2022/08/28 08:31:21;;;;;;;6.00;1.17;;;;;;;;;;5033140;28;20068;-63
2022/08/28 08:33:48;;;;;;;3.38;1.30;;;;;;;;;;5032906;28;20045;-62
2022/08/28 08:36:16;;;;;;;5.63;1.25;;;;;;;;;;5032584;28;20041;-63
2022/08/28 08:38:42;;;;;;;3.88;1.42;;;;;;;;;;5032592;28;20045;-63
2022/08/28 08:41:19;;;;;;;7.07;1.50;;;;;;;;;;5032960;28;20041;-63
2022/08/28 08:43:53;;;;;;;7.00;1.42;;;;;;;;;;5033019;28;20041;-63
2022/08/28 08:46:21;;;;;;;7.70;1.50;;;;;;;;;;5032769;28;20053;-62
2022/08/28 08:48:47;;;;;;;6.72;1.40;;;;;;;;;;5032269;28;20045;-63
2022/08/28 08:51:19;;;;;;;7.15;1.52;;;;;;;;;;5032794;28;20040;-62
2022/08/28 08:53:51;;;;;;;6.65;1.83;;;;;;;;;;5032647;28;20565;-63
2022/08/28 08:56:20;;;;;;;7.80;1.55;;;;;;;;;;5031839;28;20133;-63
2022/08/28 08:58:48;;;;;;;3.85;1.65;;;;;;;;;;5032537;28;20577;-63
2022/08/28 09:01:22;;;;;;;4.05;1.15;;;;;;;;;;5032476;28;20048;-63
2022/08/28 09:03:48;;;;;;;8.27;2.40;;;;;;;;;;5032071;28;20500;-63
2022/08/28 09:06:32;;;;;;;8.18;1.63;;;;;;;;;;5031163;28;20060;-63
2022/08/28 09:09:01;;;;;;;4.25;1.38;;;;;;;;;;5031759;28;20080;-63
2022/08/28 09:11:48;;;;;;;5.80;1.55;;;;;;;;;;5032022;28;20041;-63
2022/08/28 09:14:36;;;;;;;5.13;1.60;;;;;;;;;;5032362;28;20538;-63
2022/08/28 09:17:03;;;;;;;8.70;1.50;;;;;;;;;;5032128;28;20068;-63
2022/08/28 09:19:29;;;;;;;6.68;1.58;;;;;;;;;;5031889;28;20042;-63
2022/08/28 09:21:55;;;;;;;9.40;1.90;;;;;;;;;;5032175;28;20376;-63
2022/08/28 09:24:31;;;;;;;4.65;1.50;;;;;;;;;;5032126;28;20037;-63
2022/08/28 09:27:07;;;;;;;4.72;1.20;;;;;;;;;;5048168;28;20068;-63
2022/08/28 09:29:39;;;;;;;5.47;2.10;;;;;;;;;;5051539;28;20049;-63
2022/08/28 09:32:23;;;;;;;3.00;1.60;;;;;;;;;;5051883;28;20029;-63
2022/08/28 09:35:05;;;;;;;9.32;1.50;;;;;;;;;;5051200;28;20056;-63
2022/08/28 09:37:31;;;;;;;5.00;1.73;;;;;;;;;;5051654;28;20060;-63
2022/08/28 09:40:12;;;;;;;5.07;1.70;;;;;;;;;;5051743;28;20067;-63
2022/08/28 09:45:26;;;;;;;7.82;1.42;;;;;;;;;;5051691;28;20115;-63
2022/08/28 09:48:01;;;;;;;5.53;1.30;;;;;;;;;;5051325;28;20044;-63
2022/08/28 09:50:30;;;;;;;3.38;1.40;;;;;;;;;;5051697;28;20087;-63
2022/08/28 09:52:58;;;;;;;5.07;1.80;;;;;;;;;;5051526;28;20032;-63
2022/08/28 09:55:33;;;;;;;8.60;1.58;;;;;;;;;;5051190;28;20059;-63
2022/08/28 09:57:59;;;;;;;5.78;1.80;;;;;;;;;;5051339;28;20033;-63
2022/08/28 10:00:27;;;;;;;5.28;1.50;;;;;;;;;;5033662;28;20468;-63
2022/08/28 10:02:59;;;;;;;8.10;2.00;;;;;;;;;;5037471;28;20041;-63
2022/08/28 10:05:34;;;;;;;4.25;1.35;;;;;;;;;;5031443;28;20045;-63
2022/08/28 10:08:06;;;;;;;4.10;1.40;;;;;;;;;;5030742;28;20141;-63
2022/08/28 10:10:34;;;;;;;5.70;1.48;;;;;;;;;;5030763;28;20111;-63
2022/08/28 10:13:15;;;;;;;7.45;1.52;;;;;;;;;;5031446;28;20057;-63
2022/08/28 10:15:41;;;;;;;2.03;1.27;;;;;;;;;;5031390;28;20503;-63
2022/08/28 10:18:16;;;;;;;6.22;1.58;;;;;;;;;;5034322;28;20045;-63
2022/08/28 10:21:01;;;;;;;6.60;1.38;;;;;;;;;;5035441;28;20045;-63
2022/08/28 10:23:31;;;;;;;4.53;1.50;;;;;;;;;;5035330;28;20128;-63
2022/08/28 10:26:19;;;;;;;8.00;1.80;;;;;;;;;;5043215;28;20098;-63
2022/08/28 10:28:55;;;;;;;6.82;1.42;;;;;;;;;;5055134;28;20047;-63
2022/08/28 10:31:35;;;;;;;4.47;1.88;;;;;;;;;;5055189;28;20081;-63
2022/08/28 10:34:13;;;;;;;5.18;1.40;;;;;;;;;;5054682;28;20116;-63
2022/08/28 10:36:40;;;;;;;8.63;2.08;;;;;;;;;;5054932;28;20036;-63
2022/08/28 10:39:26;;;;;;;6.43;1.25;;;;;;;;;;5055101;28;20411;-63
2022/08/28 10:41:59;;;;;;;5.07;1.55;;;;;;;;;;5054379;28;20041;-63
2022/08/28 10:44:34;;;;;;;4.45;1.83;;;;;;;;;;5055067;28;20163;-63
2022/08/28 10:47:02;;;;;;;8.32;1.48;;;;;;;;;;5054816;28;20451;-63
2022/08/28 10:49:28;;;;;;;6.25;1.60;;;;;;;;;;5054499;28;20052;-63
2022/08/28 10:51:56;;;;;;;7.47;1.52;;;;;;;;;;5054902;28;20041;-63
2022/08/28 10:54:25;;;;;;;4.45;1.52;;;;;;;;;;5054677;28;20134;-63
2022/08/28 10:56:58;;;;;;;6.63;1.45;;;;;;;;;;5054351;28;20693;-63
2022/08/28 10:59:25;;;;;;;3.83;1.27;;;;;;;;;;5054446;28;20044;-63
2022/08/28 11:01:51;;;;;;;4.32;1.63;;;;;;;;;;5049366;28;20041;-63
2022/08/28 11:04:22;;;;;;;6.28;1.70;;;;;;;;;;5034244;28;20060;-63
2022/08/28 11:06:58;;;;;;;5.00;1.60;;;;;;;;;;5034179;28;20042;-63
2022/08/28 11:09:28;;;;;;;5.47;1.77;;;;;;;;;;5034189;28;20125;-63
2022/08/28 11:12:02;;;;;;;4.55;1.50;;;;;;;;;;5034601;28;20048;-63
2022/08/28 11:14:30;;;;;;;5.50;1.73;;;;;;;;;;5016830;28;20040;-63
2022/08/28 11:17:00;;;;;;;9.77;2.17;;;;;;;;;;5033607;28;20049;-63
2022/08/28 11:19:35;;;;;;;6.85;1.80;;;;;;;;;;5034035;28;20715;-63
2022/08/28 11:22:08;;;;;;;4.80;1.42;;;;;;;;;;5033059;28;20574;-63
2022/08/28 11:24:33;;;;;;;;;;;;;;;;;;5032684;28;20080;-63
2022/08/28 11:27:17;;;;;;;4.32;1.27;;;;;;;;;;5049955;28;19963;-63
2022/08/28 11:30:05;;;;;;;5.60;1.60;;;;;;;;;;5051904;28;20395;-63
2022/08/28 11:32:31;;;;;;;3.47;1.50;;;;;;;;;;5052533;28;20048;-63
2022/08/28 11:34:58;;;;;;;5.97;2.05;;;;;;;;;;5052699;28;20040;-63
2022/08/28 11:37:36;;;;;;;6.15;1.77;;;;;;;;;;5052183;28;20040;-63
2022/08/28 11:40:17;;;;;;;10.82;1.70;;;;;;;;;;5052195;28;20044;-63
2022/08/28 11:42:47;;;;;;;6.82;1.90;;;;;;;;;;5052444;28;20281;-63
2022/08/28 11:45:18;;;;;;;3.40;1.48;;;;;;;;;;5052490;28;20124;-63
2022/08/28 11:47:45;;;;;;;4.80;1.67;;;;;;;;;;5051814;28;20099;-63
2022/08/28 11:50:13;;;;;;;4.80;1.63;;;;;;;;;;5052416;28;20124;-63
2022/08/28 11:52:50;;;;;;;5.15;1.38;;;;;;;;;;5052146;28;20391;-63
2022/08/28 11:55:21;;;;;;;5.15;1.42;;;;;;;;;;5051968;28;20095;-63
2022/08/28 11:57:55;;;;;;;7.05;1.70;;;;;;;;;;5052143;28;20262;-63
2022/08/28 12:00:24;;;;;;;3.92;1.20;;;;;;;;;;5052421;28;20037;-63
2022/08/28 12:02:52;;;;;;;4.90;1.48;;;;;;;;;;5038799;28;20607;-63
2022/08/28 12:05:30;;;;;;;3.10;1.38;;;;;;;;;;5032244;28;20041;-63
2022/08/28 12:07:57;;;;;;;5.45;1.70;;;;;;;;;;5031690;28;20054;-63
2022/08/28 12:10:23;;;;;;;3.58;1.73;;;;;;;;;;5031740;28;20388;-63
2022/08/28 12:12:49;;;;;;;6.00;1.95;;;;;;;;;;5031712;28;20037;-63
2022/08/28 12:15:27;;;;;;;5.65;1.60;;;;;;;;;;5032083;28;20056;-63
2022/08/28 12:17:53;;;;;;;3.38;1.30;;;;;;;;;;5031605;28;20431;-63
2022/08/28 12:20:38;;;;;;;4.25;1.60;;;;;;;;;;5031973;28;20041;-63
2022/08/28 12:23:24;;;;;;;3.67;1.30;;;;;;;;;;5031948;28;20064;-63
2022/08/28 12:25:57;;;;;;;4.15;1.50;;;;;;;;;;5039237;28;20066;-63
2022/08/28 12:28:31;;;;;;;2.75;1.20;;;;;;;;;;5051707;28;20045;-63
2022/08/28 12:30:57;;;;;;;5.32;1.58;;;;;;;;;;5051371;28;20068;-63
2022/08/28 12:33:35;;;;;;;3.78;1.48;;;;;;;;;;5051568;28;20487;-63
2022/08/28 12:36:05;;;;;;;4.53;1.33;;;;;;;;;;5050994;28;20116;-63
2022/08/28 12:38:32;;;;;;;3.78;1.63;;;;;;;;;;5051040;28;20087;-63
2022/08/28 12:40:59;;;;;;;4.53;1.20;;;;;;;;;;5050345;28;20040;-63
2022/08/28 12:43:30;;;;;;;2.85;1.10;;;;;;;;;;5051317;28;20094;-63
2022/08/28 12:46:05;;;;;;;8.90;1.48;;;;;;;;;;5050885;28;20576;-63
2022/08/28 12:48:33;;;;;;;4.00;1.23;;;;;;;;;;5051198;28;20041;-63
2022/08/28 12:50:59;;;;;;;3.83;1.27;;;;;;;;;;5051243;28;20037;-63
2022/08/28 12:53:25;;;;;;;4.43;1.40;;;;;;;;;;5050739;28;20040;-63
2022/08/28 12:55:51;;;;;;;3.95;1.30;;;;;;;;;;5050934;28;20033;-63
2022/08/28 12:58:29;;;;;;;2.33;1.25;;;;;;;;;;5050974;28;20052;-63
2022/08/28 13:00:57;;;;;;;4.05;1.38;;;;;;;;;;5050711;28;20461;-63
2022/08/28 13:03:23;;;;;;;7.13;1.60;;;;;;;;;;5033347;28;20038;-63
2022/08/28 13:05:55;;;;;;;4.68;1.30;;;;;;;;;;5030933;28;20045;-63
2022/08/28 13:08:22;;;;;;;2.30;1.08;;;;;;;;;;5030218;28;20052;-63
2022/08/28 13:10:48;;;;;;;3.20;1.30;;;;;;;;;;5030866;28;20033;-63
2022/08/28 13:13:20;;;;;;;6.20;1.35;;;;;;;;;;5030790;28;20041;-63
2022/08/28 13:15:57;;;;;;;5.43;1.30;;;;;;;;;;5030524;28;20045;-63
2022/08/28 13:18:40;;;;;;;4.80;1.83;;;;;;;;;;5030960;28;20069;-63
2022/08/28 13:21:18;;;;;;;3.78;1.33;;;;;;;;;;5030533;28;20323;-63
2022/08/28 13:23:52;;;;;;;2.47;1.30;;;;;;;;;;5030432;28;20041;-63
2022/08/28 13:26:25;;;;;;;5.68;1.50;;;;;;;;;;5042281;28;20427;-63
2022/08/28 13:28:51;;;;;;;5.28;1.45;;;;;;;;;;5050529;28;20041;-63
2022/08/28 13:31:31;;;;;;;6.25;1.20;;;;;;;;;;5050287;28;20037;-63
2022/08/28 13:34:04;;;;;;;2.38;0.95;;;;;;;;;;5050236;28;20422;-63
2022/08/28 13:36:37;;;;;;;3.58;1.40;;;;;;;;;;5050102;28;20040;-63
2022/08/28 13:39:03;;;;;;;3.90;1.30;;;;;;;;;;5050051;28;20415;-63
2022/08/28 13:41:29;;;;;;;2.25;0.88;;;;;;;;;;5050421;28;20041;-63
2022/08/28 13:43:56;;;;;;;3.08;1.17;;;;;;;;;;5050378;28;20044;-63
2022/08/28 13:46:22;;;;;;;3.15;1.10;;;;;;;;;;5049503;28;20055;-63
2022/08/28 13:48:48;;;;;;;3.05;1.10;;;;;;;;;;5050195;28;20045;-63
2022/08/28 13:51:14;;;;;;;3.08;1.20;;;;;;;;;;5049983;28;20037;-63
2022/08/28 13:53:40;;;;;;;4.15;0.95;;;;;;;;;;5049675;28;20072;-63
2022/08/28 13:56:06;;;;;;;3.83;1.20;;;;;;;;;;5049890;28;20045;-63
2022/08/28 13:58:32;;;;;;;3.10;1.00;;;;;;;;;;5032394;28;20134;-63
2022/08/28 14:00:59;;;;;;;3.80;0.90;;;;;;;;;;5049824;28;20084;-63
2022/08/28 14:03:37;;;;;;;4.15;1.10;;;;;;;;;;5032251;28;20494;-63
2022/08/28 14:06:10;;;;;;;3.95;1.00;;;;;;;;;;5030173;28;20055;-63
2022/08/28 14:08:36;;;;;;;3.63;1.00;;;;;;;;;;5029325;28;20557;-63
2022/08/28 14:11:02;;;;;;;2.72;0.90;;;;;;;;;;5030166;28;20558;-63
2022/08/28 14:13:28;;;;;;;1.75;0.68;;;;;;;;;;5029933;28;20414;-63
2022/08/28 14:15:55;;;;;;;3.25;0.90;;;;;;;;;;5029848;28;20469;-63
2022/08/28 14:18:21;;;;;;;3.53;1.00;;;;;;;;;;5029950;28;20048;-63
2022/08/28 14:20:47;;;;;;;3.55;1.20;;;;;;;;;;5029932;28;20045;-63
2022/08/28 14:23:13;;;;;;;3.25;1.05;;;;;;;;;;5029620;28;20041;-63
2022/08/28 14:25:46;;;;;;;4.35;1.17;;;;;;;;;;5036030;28;20044;-63
2022/08/28 14:28:15;;;;;;;1.30;0.70;;;;;;;;;;5049463;28;20080;-63
2022/08/28 14:30:45;;;;;;;3.35;0.90;;;;;;;;;;5049249;28;20080;-63
2022/08/28 14:33:13;;;;;;;2.88;0.90;;;;;;;;;;5049732;28;20076;-63
2022/08/28 14:35:40;;;;;;;2.47;0.77;;;;;;;;;;5050005;28;20096;-63
2022/08/28 14:38:06;;;;;;;6.40;1.02;;;;;;;;;;5049407;28;20467;-63
2022/08/28 14:40:34;;;;;;;3.08;0.70;;;;;;;;;;5049803;28;20090;-63
2022/08/28 14:43:00;;;;;;;4.45;0.80;;;;;;;;;;5049726;28;20041;-63
2022/08/28 14:45:26;;;;;;;5.53;1.27;;;;;;;;;;5049269;28;20045;-63
2022/08/28 14:47:52;;;;;;;2.88;0.85;;;;;;;;;;5049769;28;20123;-63
2022/08/28 14:50:18;;;;;;;6.10;1.00;;;;;;;;;;5049653;28;20676;-63
2022/08/28 14:52:44;;;;;;;3.65;0.80;;;;;;;;;;5049263;28;20041;-63
2022/08/28 14:55:13;;;;;;;3.33;0.90;;;;;;;;;;5049940;28;20316;-63
2022/08/28 14:57:39;;;;;;;3.00;1.17;;;;;;;;;;5049553;28;20077;-63
2022/08/28 15:00:06;;;;;;;3.20;0.85;;;;;;;;;;5049365;28;20047;-63
2022/08/28 15:02:31;;;;;;;2.60;0.77;;;;;;;;;;5038726;28;20041;-63